SBUL/UDI METAR and TAF weather

Enter ICAO airport designator
Station Type Date Time Source
SBUL METAR 2020/07/14 23:00 UTC NOAA

SBUL 142300Z 15004KT CAVOK 23/07 Q1021


Station Type Date Time Source
SBUL Decoded METAR 2020/07/14 23:00 UTC NOAA

Uberlandia , Brazil (SBUL) 18-53S 048-14W
Jul 14, 2020 - 07:00 PM EDT / 2020.07.14 2300 UTC
Wind: from the SSE (150 degrees) at 5 MPH (4 KT):0
Visibility: greater than 7 mile(s):0
Temperature: 73 F (23 C)
Dew Point: 44 F (7 C)
Relative Humidity: 35%
Pressure (altimeter): 30.15 in. Hg (1021 hPa)
ob: SBUL 142300Z 15004KT CAVOK 23/07 Q1021
cycle: 23

Station Type Date Time Source
SBUL TAF 2020/07/14 18:42 UTC NOAA

TAF SBUL 141530Z 1418/1506 20005KT 9999 FEW040TX28/1418Z TN18/1506Z
BECMG 1420/1422 17005KT CAVOK
RMK PGH

Example: see airport list